Chu-tung, Taiwan
Current Conditions -  °F | °C
As of 5:30 PM on Thursday 23 Oct 2014 (Local Time) from RCTP Reporting Station
Overcast Overcast  
Wind Chill: 73°   Ceiling: 3500
Heat Index: 73°   Visibility: 6mi
Dew Point: 61°   Wind: 18mph
Humidity: 65%   Direction: 50°NE
Pressure: 30"   Gusts: NA
Location:  24.73°N, 121.08°E
Report Text: RCTP 230930Z 05016KT 9999 FEW025 OVC035 23/16 Q1016 NOSIGRMK A3002
Loading
Personal Weather Stations






























Interactive Weather Map
Tropical Storm Tracking
New forecast layout! Learn more

10-Day Weather Forecast

Advertisements
Track Severe Weather on mobile